Time;durP1;ratioP1;P1;durP2;ratioP2;P2;SDS_P1;SDS_P2;PMS_P1;PMS_P2;Temp;Humidity;BMP_temperature;BMP_pressure;BME280_temperature;BME280_humidity;BME280_pressure;Samples;Min_cycle;Max_cycle;Signal;HPM_P1;HPM_P2
2023/01/07 00:01:27;;;;;;;35.78;21.70;;;4.20;99.90;;;;;;5049931;28;20067;-75
2023/01/07 00:03:54;;;;;;;38.95;21.17;;;4.20;99.90;;;;;;5050206;28;20067;-75
2023/01/07 00:06:22;;;;;;;35.03;20.73;;;4.30;99.90;;;;;;5049643;28;20029;-74
2023/01/07 00:08:50;;;;;;;33.80;19.38;;;4.30;99.90;;;;;;5045445;28;20521;-74
2023/01/07 00:11:30;;;;;;;29.02;19.35;;;4.20;99.90;;;;;;5041997;28;20033;-75
2023/01/07 00:13:57;;;;;;;31.40;18.30;;;4.10;99.90;;;;;;5040077;28;20053;-75
2023/01/07 00:16:25;;;;;;;34.83;20.15;;;4.10;99.90;;;;;;5049960;28;20078;-75
2023/01/07 00:18:52;;;;;;;28.52;17.88;;;4.00;99.90;;;;;;5048686;28;20063;-75
2023/01/07 00:21:20;;;;;;;26.98;17.02;;;4.00;99.90;;;;;;5050215;28;20032;-75
2023/01/07 00:23:46;;;;;;;30.45;17.95;;;4.00;99.90;;;;;;5050248;28;20112;-75
2023/01/07 00:26:17;;;;;;;31.08;17.85;;;4.00;99.90;;;;;;5051421;28;20513;-75
2023/01/07 00:28:44;;;;;;;29.05;17.80;;;4.00;99.90;;;;;;5049031;28;20045;-75
2023/01/07 00:31:15;;;;;;;28.88;17.45;;;3.90;99.90;;;;;;5035327;28;20064;-74
2023/01/07 00:36:19;;;;;;;34.42;20.00;;;4.20;99.90;;;;;;5053992;28;20033;-74
2023/01/07 00:38:45;;;;;;;38.42;21.23;;;4.00;99.90;;;;;;5053513;28;20047;-74
2023/01/07 00:41:11;;;;;;;38.20;20.90;;;4.00;99.90;;;;;;5053186;28;20021;-74
2023/01/07 00:43:37;;;;;;;36.33;21.80;;;4.00;99.90;;;;;;5068476;28;20517;-74
2023/01/07 00:46:02;;;;;;;35.10;20.15;;;4.00;99.90;;;;;;5053948;28;20045;-74
2023/01/07 00:48:28;;;;;;;39.10;21.73;;;4.00;99.90;;;;;;5052986;28;20116;-74
2023/01/07 00:50:54;;;;;;;36.97;20.50;;;4.00;99.90;;;;;;5068583;28;20021;-74
2023/01/07 00:53:20;;;;;;;39.45;22.05;;;3.90;99.90;;;;;;5053196;28;20029;-74
2023/01/07 00:55:47;;;;;;;35.90;21.42;;;3.80;99.90;;;;;;5053227;28;20028;-75
2023/01/07 00:58:21;;;;;;;38.80;21.95;;;3.90;99.90;;;;;;5052999;28;20028;-74
2023/01/07 01:00:47;;;;;;;37.97;20.55;;;3.90;99.90;;;;;;5048215;28;20080;-75
2023/01/07 01:03:13;;;;;;;35.67;20.63;;;4.00;99.90;;;;;;5044724;28;20441;-75
2023/01/07 01:05:39;;;;;;;38.78;20.63;;;4.00;99.90;;;;;;5052565;28;20052;-75
2023/01/07 01:08:05;;;;;;;36.58;20.60;;;3.90;99.90;;;;;;5052585;28;20514;-74
2023/01/07 01:10:31;;;;;;;37.22;21.38;;;3.80;99.90;;;;;;5051530;28;20064;-74
2023/01/07 01:12:57;;;;;;;41.88;23.55;;;4.00;99.90;;;;;;5052542;28;20059;-74
2023/01/07 01:15:23;;;;;;;43.60;22.85;;;3.90;99.90;;;;;;5052395;28;20108;-75
2023/01/07 01:17:50;;;;;;;42.40;23.10;;;3.90;99.90;;;;;;5052697;28;20465;-74
2023/01/07 01:20:16;;;;;;;40.22;22.08;;;3.90;99.90;;;;;;5052560;28;20116;-75
2023/01/07 01:22:43;;;;;;;36.83;20.85;;;3.90;99.90;;;;;;5052954;28;20083;-75
2023/01/07 01:25:09;;;;;;;36.88;20.30;;;3.70;99.90;;;;;;5052730;28;20032;-75
2023/01/07 01:27:34;;;;;;;35.78;19.38;;;3.80;99.90;;;;;;5052475;28;20017;-75
2023/01/07 01:30:01;;;;;;;37.33;20.80;;;3.80;99.90;;;;;;5051980;28;20128;-74
2023/01/07 01:32:27;;;;;;;40.70;21.98;;;3.80;99.90;;;;;;5050901;28;20021;-75
2023/01/07 01:34:53;;;;;;;35.20;19.13;;;3.80;99.90;;;;;;5052168;28;20724;-75
2023/01/07 01:37:19;;;;;;;32.20;18.77;;;3.80;99.90;;;;;;5051605;28;20099;-75
2023/01/07 01:39:44;;;;;;;33.28;17.60;;;3.70;99.90;;;;;;5047500;28;20029;-75
2023/01/07 01:42:21;;;;;;;30.55;17.83;;;3.70;99.90;;;;;;5043509;28;20073;-75
2023/01/07 01:44:53;;;;;;;33.08;17.98;;;3.60;99.90;;;;;;5052782;28;20020;-75
2023/01/07 01:47:21;;;;;;;29.42;17.50;;;3.60;99.90;;;;;;5051931;28;20032;-75
2023/01/07 01:49:57;;;;;;;31.30;16.95;;;3.70;99.90;;;;;;5052156;28;20025;-75
2023/01/07 01:52:33;;;;;;;30.45;16.88;;;3.80;99.90;;;;;;5051927;28;20063;-75
2023/01/07 01:55:00;;;;;;;32.60;17.77;;;3.80;99.90;;;;;;5051669;28;20052;-75
2023/01/07 01:57:29;;;;;;;32.28;17.67;;;3.80;99.90;;;;;;5050257;28;20025;-75
2023/01/07 01:59:56;;;;;;;32.65;18.58;;;3.80;99.90;;;;;;5051821;28;20056;-75
2023/01/07 02:02:38;;;;;;;29.60;17.85;;;3.70;99.90;;;;;;5051548;28;20032;-75
2023/01/07 02:05:05;;;;;;;31.50;18.17;;;3.60;99.90;;;;;;5051500;28;20021;-75
2023/01/07 02:07:31;;;;;;;31.77;17.92;;;3.80;99.90;;;;;;5051849;28;20017;-74
2023/01/07 02:10:20;;;;;;;30.88;18.15;;;3.70;99.90;;;;;;5051867;28;20029;-75
2023/01/07 02:13:15;;;;;;;30.05;16.58;;;3.60;99.90;;;;;;5050002;28;20025;-74
2023/01/07 02:15:49;;;;;;;26.35;15.48;;;3.70;99.90;;;;;;5039596;28;20048;-75
2023/01/07 02:18:34;;;;;;;27.77;15.77;;;3.60;99.90;;;;;;5050909;28;20033;-74
2023/01/07 02:21:26;;;;;;;28.83;16.73;;;3.60;99.90;;;;;;5051410;28;20021;-75
2023/01/07 02:24:37;;;;;;;23.92;14.27;;;3.60;99.90;;;;;;5009731;28;20093;-75
2023/01/07 02:27:02;;;;;;;23.15;13.55;;;3.50;99.90;;;;;;5017313;28;20112;-75
2023/01/07 02:30:08;;;;;;;23.45;14.00;;;3.60;99.90;;;;;;4998888;28;20664;-75
2023/01/07 02:33:31;;;;;;;22.27;13.23;;;3.50;99.90;;;;;;5015960;28;20066;-75
2023/01/07 02:36:16;;;;;;;23.38;14.05;;;3.60;99.90;;;;;;4968040;28;20125;-75
2023/01/07 02:39:00;;;;;;;21.63;12.45;;;3.70;99.90;;;;;;4961699;28;20046;-75
2023/01/07 02:41:47;;;;;;;18.92;11.43;;;3.60;99.90;;;;;;4957534;28;20066;-75
2023/01/07 02:44:21;;;;;;;18.50;12.32;;;3.60;99.90;;;;;;4957335;28;20046;-75
2023/01/07 02:46:55;;;;;;;16.27;10.90;;;3.50;99.90;;;;;;4969665;28;20054;-74
2023/01/07 02:49:20;;;;;;;17.65;10.70;;;3.50;99.90;;;;;;4965281;28;20054;-75
2023/01/07 02:51:46;;;;;;;15.82;10.77;;;3.50;99.90;;;;;;4961725;28;20039;-74
2023/01/07 02:54:20;;;;;;;18.95;11.10;;;3.50;99.90;;;;;;4956469;28;20524;-75
2023/01/07 02:57:05;;;;;;;16.10;10.25;;;3.70;99.90;;;;;;4959193;28;20039;-75
2023/01/07 02:59:50;;;;;;;15.63;9.73;;;3.80;99.90;;;;;;4969699;28;20105;-75
2023/01/07 03:02:26;;;;;;;15.27;9.93;;;3.60;99.90;;;;;;5005149;28;20037;-75
2023/01/07 03:05:40;;;;;;;15.60;9.10;;;3.70;99.90;;;;;;5008708;28;20223;-75
2023/01/07 03:08:14;;;;;;;12.65;8.35;;;3.80;99.90;;;;;;4928748;29;20090;-75
2023/01/07 03:10:50;;;;;;;12.30;8.07;;;3.70;99.90;;;;;;4935950;28;20047;-75
2023/01/07 03:13:21;;;;;;;14.55;8.38;;;3.70;99.90;;;;;;4969280;28;20046;-75
2023/01/07 03:16:04;;;;;;;13.20;8.65;;;3.70;99.90;;;;;;4969341;28;20031;-75
2023/01/07 03:18:34;;;;;;;12.75;8.27;;;3.80;99.90;;;;;;4969296;28;20034;-74
2023/01/07 03:21:04;;;;;;;13.57;8.23;;;3.80;99.90;;;;;;4969163;28;20050;-75
2023/01/07 03:23:30;;;;;;;16.15;9.38;;;3.80;99.90;;;;;;4969370;28;20038;-75
2023/01/07 03:26:02;;;;;;;10.75;6.97;;;3.80;99.90;;;;;;4969641;28;20031;-75
2023/01/07 03:28:31;;;;;;;11.80;7.35;;;3.70;99.90;;;;;;4956652;28;20050;-75
2023/01/07 03:30:59;;;;;;;11.52;7.20;;;3.60;99.90;;;;;;4969598;28;20042;-75
2023/01/07 03:33:59;;;;;;;11.43;7.35;;;3.50;99.90;;;;;;4969342;28;20035;-75
2023/01/07 03:36:29;;;;;;;8.93;6.53;;;3.50;99.90;;;;;;4953311;28;20125;-75
2023/01/07 03:38:55;;;;;;;9.95;6.20;;;3.70;99.90;;;;;;4966371;28;20046;-75
2023/01/07 03:44:05;;;;;;;9.70;6.38;;;3.80;99.90;;;;;;4990798;28;20041;-75
2023/01/07 03:46:33;;;;;;;9.85;6.53;;;3.70;99.90;;;;;;5050299;28;20029;-75
2023/01/07 03:48:59;;;;;;;10.80;6.70;;;3.70;99.90;;;;;;5046427;28;20133;-75
2023/01/07 03:51:24;;;;;;;10.40;6.50;;;3.70;99.90;;;;;;5050348;28;20052;-75
2023/01/07 03:53:50;;;;;;;10.95;7.03;;;3.90;99.90;;;;;;5050504;28;20475;-75
2023/01/07 03:56:15;;;;;;;9.80;6.47;;;3.80;99.90;;;;;;5050165;28;20487;-75
2023/01/07 03:58:41;;;;;;;10.10;6.72;;;3.80;99.90;;;;;;5048587;28;20495;-75
2023/01/07 04:01:07;;;;;;;10.02;6.47;;;3.80;99.90;;;;;;5051827;28;20014;-75
2023/01/07 04:03:33;;;;;;;9.27;6.28;;;3.80;99.90;;;;;;5053722;28;20646;-75
2023/01/07 04:05:58;;;;;;;8.60;6.22;;;3.80;99.90;;;;;;5054203;28;20021;-75
2023/01/07 04:08:24;;;;;;;9.13;5.90;;;3.90;99.90;;;;;;5052615;28;20526;-75
2023/01/07 04:10:50;;;;;;;10.95;6.28;;;3.80;99.90;;;;;;5046010;28;20026;-74
2023/01/07 04:13:15;;;;;;;10.73;6.88;;;3.70;99.90;;;;;;5048245;28;20032;-75
2023/01/07 04:15:41;;;;;;;9.23;6.25;;;3.60;99.90;;;;;;5053741;28;20104;-74
2023/01/07 04:18:07;;;;;;;8.75;6.22;;;3.90;99.90;;;;;;5053624;28;20040;-75
2023/01/07 04:20:33;;;;;;;10.50;6.93;;;3.90;99.90;;;;;;5053774;28;20025;-75
2023/01/07 04:22:59;;;;;;;8.90;6.32;;;3.90;99.90;;;;;;5053299;28;20550;-75
2023/01/07 04:25:24;;;;;;;9.10;6.10;;;3.90;99.90;;;;;;5053726;28;20047;-75
2023/01/07 04:27:50;;;;;;;10.32;6.95;;;3.90;99.90;;;;;;5053577;28;20045;-75
2023/01/07 04:30:16;;;;;;;9.27;6.00;;;3.90;99.90;;;;;;5053551;28;20111;-75
2023/01/07 04:32:41;;;;;;;9.52;5.88;;;4.00;99.90;;;;;;5049816;28;20032;-75
2023/01/07 04:35:07;;;;;;;7.88;5.93;;;3.80;99.90;;;;;;5053110;28;20021;-75
2023/01/07 04:37:33;;;;;;;9.65;6.18;;;3.90;99.90;;;;;;5049604;28;20033;-75
2023/01/07 04:39:59;;;;;;;10.43;6.60;;;3.80;99.90;;;;;;5053684;28;20119;-75
2023/01/07 04:42:24;;;;;;;8.88;5.78;;;3.80;99.90;;;;;;5053192;28;20044;-75
2023/01/07 04:44:50;;;;;;;7.90;5.70;;;4.00;99.90;;;;;;5067435;28;20024;-75
2023/01/07 04:47:16;;;;;;;9.23;5.97;;;3.90;99.90;;;;;;5049227;28;20434;-75
2023/01/07 04:49:41;;;;;;;10.77;6.65;;;4.20;99.90;;;;;;5052762;28;20078;-75
2023/01/07 04:52:07;;;;;;;7.20;5.43;;;4.20;99.90;;;;;;5053116;28;20025;-75
2023/01/07 04:54:33;;;;;;;7.80;5.35;;;4.30;99.90;;;;;;5053175;28;20606;-75
2023/01/07 04:56:59;;;;;;;7.28;4.90;;;4.20;99.90;;;;;;5052665;28;20096;-75
2023/01/07 04:59:24;;;;;;;7.65;5.30;;;4.70;99.90;;;;;;5053157;28;20032;-75
2023/01/07 05:01:50;;;;;;;7.10;4.90;;;4.80;99.90;;;;;;5052628;28;20028;-75
2023/01/07 05:04:16;;;;;;;6.32;4.85;;;4.90;99.90;;;;;;5051611;28;20086;-75
2023/01/07 05:06:41;;;;;;;7.30;5.28;;;4.80;99.90;;;;;;5052762;28;20486;-75
2023/01/07 05:09:07;;;;;;;7.47;5.45;;;5.20;99.90;;;;;;5053184;28;20025;-75
2023/01/07 05:11:33;;;;;;;6.07;5.30;;;5.00;99.90;;;;;;5052769;28;20033;-76
2023/01/07 05:13:59;;;;;;;8.57;5.28;;;5.20;99.90;;;;;;5052818;28;20033;-75
2023/01/07 05:16:25;;;;;;;6.38;4.85;;;5.10;99.90;;;;;;5048613;28;20025;-75
2023/01/07 05:18:51;;;;;;;6.85;5.60;;;5.00;99.90;;;;;;5052511;28;20029;-75
2023/01/07 05:21:16;;;;;;;6.85;5.38;;;5.00;99.90;;;;;;5052280;28;20027;-75
2023/01/07 05:23:43;;;;;;;6.38;5.15;;;5.10;99.90;;;;;;5053034;28;20560;-75
2023/01/07 05:26:08;;;;;;;7.97;5.50;;;5.30;99.90;;;;;;5052634;28;20059;-75
2023/01/07 05:28:34;;;;;;;6.07;4.72;;;5.30;99.90;;;;;;5051327;28;20076;-76
2023/01/07 05:31:00;;;;;;;5.10;4.55;;;5.20;99.90;;;;;;5052436;28;20041;-75
2023/01/07 05:33:26;;;;;;;5.30;4.63;;;5.20;99.90;;;;;;5039131;28;20033;-75
2023/01/07 05:35:52;;;;;;;5.30;3.95;;;5.20;99.90;;;;;;5052330;28;20052;-75
2023/01/07 05:38:18;;;;;;;5.38;4.10;;;5.30;99.90;;;;;;5052419;28;20025;-76
2023/01/07 05:40:47;;;;;;;5.20;4.43;;;5.90;99.90;;;;;;5051034;28;20048;-75
2023/01/07 05:43:13;;;;;;;4.70;4.20;;;5.80;99.90;;;;;;5039213;28;20017;-75
2023/01/07 05:45:41;;;;;;;5.78;4.72;;;5.90;99.90;;;;;;5053072;28;20154;-76
2023/01/07 05:48:07;;;;;;;6.07;4.40;;;6.00;99.90;;;;;;5052037;28;20050;-75
2023/01/07 05:50:32;;;;;;;4.88;4.10;;;5.80;99.90;;;;;;5050763;28;20033;-76
2023/01/07 05:52:58;;;;;;;5.32;3.88;;;5.80;99.90;;;;;;5052270;28;20032;-75
2023/01/07 05:55:24;;;;;;;4.82;4.07;;;5.70;99.90;;;;;;5052081;28;20028;-75
2023/01/07 05:57:49;;;;;;;5.10;3.70;;;5.80;99.90;;;;;;5051957;28;20487;-75
2023/01/07 06:00:15;;;;;;;3.58;3.28;;;5.90;99.90;;;;;;5051661;28;20032;-75
2023/01/07 06:02:41;;;;;;;4.15;3.50;;;6.00;99.90;;;;;;5052062;28;20028;-75
2023/01/07 06:05:07;;;;;;;3.85;3.38;;;6.10;99.90;;;;;;5051726;28;20028;-75
2023/01/07 06:07:33;;;;;;;3.90;3.45;;;6.20;99.90;;;;;;5051517;28;20021;-75
2023/01/07 06:09:59;;;;;;;6.10;3.90;;;5.90;99.90;;;;;;5051579;28;20025;-75
2023/01/07 06:12:24;;;;;;;4.95;3.80;;;6.10;99.90;;;;;;5051678;28;20059;-75
2023/01/07 06:14:50;;;;;;;4.38;3.97;;;6.20;99.90;;;;;;5051252;28;20560;-75
2023/01/07 06:17:16;;;;;;;5.88;4.50;;;6.20;99.90;;;;;;5051475;28;20036;-75
2023/01/07 06:19:42;;;;;;;5.15;3.97;;;6.20;99.90;;;;;;5049799;28;20036;-76
2023/01/07 06:22:07;;;;;;;5.82;3.90;;;6.10;99.90;;;;;;5051415;28;20040;-75
2023/01/07 06:24:33;;;;;;;7.57;4.38;;;6.00;99.90;;;;;;5051006;28;20013;-75
2023/01/07 06:26:58;;;;;;;6.00;4.82;;;6.20;99.90;;;;;;5046665;28;20049;-75
2023/01/07 06:29:24;;;;;;;6.05;4.55;;;6.30;99.90;;;;;;5044792;28;20515;-75
2023/01/07 06:31:50;;;;;;;5.15;4.32;;;6.20;99.90;;;;;;5051490;28;20036;-75
2023/01/07 06:34:15;;;;;;;7.15;4.88;;;6.30;99.90;;;;;;5051082;28;20033;-75
2023/01/07 06:36:41;;;;;;;6.15;5.30;;;6.40;99.90;;;;;;5046467;28;20419;-75
2023/01/07 06:39:07;;;;;;;7.80;5.22;;;6.30;99.90;;;;;;5044892;28;20164;-75
2023/01/07 06:41:32;;;;;;;7.57;5.65;;;6.30;99.90;;;;;;5051007;28;20380;-75
2023/01/07 06:43:58;;;;;;;6.50;5.60;;;6.30;99.90;;;;;;5052176;28;20380;-75
2023/01/07 06:46:24;;;;;;;7.55;6.13;;;6.50;99.90;;;;;;5050939;28;20028;-75
2023/01/07 06:48:49;;;;;;;8.07;6.30;;;6.80;99.90;;;;;;5050714;28;20025;-75
2023/01/07 06:51:15;;;;;;;8.95;6.25;;;7.10;99.90;;;;;;5049832;28;20057;-75
2023/01/07 06:53:41;;;;;;;8.70;5.78;;;6.90;99.90;;;;;;5046543;28;20415;-75
2023/01/07 06:56:06;;;;;;;7.60;6.15;;;6.70;99.90;;;;;;5051017;28;20419;-75
2023/01/07 06:58:32;;;;;;;9.52;7.50;;;7.10;99.90;;;;;;5049516;28;20028;-75
2023/01/07 07:01:06;;;;;;;9.95;7.40;;;7.20;99.90;;;;;;5051028;28;20021;-75
2023/01/07 07:03:32;;;;;;;9.32;6.90;;;7.20;99.90;;;;;;5050419;28;20166;-76
2023/01/07 07:05:58;;;;;;;9.32;7.57;;;7.10;99.90;;;;;;5043828;28;20500;-76
2023/01/07 07:08:23;;;;;;;10.75;7.95;;;7.30;99.90;;;;;;5065506;28;20072;-75
2023/01/07 07:10:49;;;;;;;10.20;7.82;;;7.30;99.90;;;;;;5050553;28;20060;-76
2023/01/07 07:13:15;;;;;;;11.55;6.90;;;7.20;99.90;;;;;;5050684;28;20021;-75
2023/01/07 07:15:40;;;;;;;9.30;7.22;;;7.00;99.90;;;;;;5050560;28;20036;-75
2023/01/07 07:18:07;;;;;;;9.38;7.82;;;7.10;99.90;;;;;;5050240;28;20029;-75
2023/01/07 07:20:33;;;;;;;11.38;7.75;;;7.40;99.90;;;;;;5050824;28;20050;-75
2023/01/07 07:22:59;;;;;;;10.75;8.25;;;7.60;99.90;;;;;;5046515;28;20022;-75
2023/01/07 07:25:25;;;;;;;9.32;7.82;;;7.50;99.90;;;;;;5048969;28;20028;-76
2023/01/07 07:27:51;;;;;;;10.50;7.43;;;7.30;99.90;;;;;;5050745;28;20033;-75
2023/01/07 07:30:16;;;;;;;7.97;7.05;;;7.30;99.90;;;;;;5050201;28;20044;-76
2023/01/07 07:32:42;;;;;;;12.10;8.35;;;7.40;99.90;;;;;;5049920;28;20116;-75
2023/01/07 07:35:10;;;;;;;10.80;9.15;;;7.60;99.90;;;;;;5037729;28;20025;-76
2023/01/07 07:37:36;;;;;;;10.38;8.45;;;7.70;99.90;;;;;;5054615;28;20033;-75
2023/01/07 07:40:03;;;;;;;10.88;8.43;;;7.70;99.90;;;;;;5054123;28;20013;-75
2023/01/07 07:42:28;;;;;;;10.93;8.93;;;7.60;99.90;;;;;;5054321;28;20024;-75
2023/01/07 07:44:54;;;;;;;10.65;8.38;;;7.60;99.90;;;;;;5055325;28;20398;-75
2023/01/07 07:47:20;;;;;;;11.75;9.05;;;7.50;99.90;;;;;;5054097;28;20487;-75
2023/01/07 07:49:45;;;;;;;10.32;8.75;;;7.60;99.90;;;;;;5054383;28;20090;-75
2023/01/07 07:52:11;;;;;;;11.48;8.50;;;7.40;99.90;;;;;;5054208;28;20123;-75
2023/01/07 07:54:37;;;;;;;9.07;7.60;;;7.60;99.90;;;;;;5054115;28;20029;-76
2023/01/07 07:57:02;;;;;;;11.27;8.63;;;7.70;99.90;;;;;;5043523;28;20029;-75
2023/01/07 07:59:29;;;;;;;14.73;10.60;;;7.90;99.90;;;;;;5053408;28;20112;-76
2023/01/07 08:01:54;;;;;;;12.43;9.82;;;8.00;99.90;;;;;;5054142;28;20076;-76
2023/01/07 08:04:20;;;;;;;12.60;9.30;;;8.10;99.90;;;;;;5053617;28;20087;-75
2023/01/07 08:06:46;;;;;;;11.82;9.65;;;8.40;99.90;;;;;;5053813;28;20032;-76
2023/01/07 08:09:11;;;;;;;14.65;10.98;;;8.50;99.90;;;;;;5052221;28;20499;-75
2023/01/07 08:11:37;;;;;;;11.30;9.93;;;8.30;99.90;;;;;;5053636;28;20033;-75
2023/01/07 08:14:03;;;;;;;14.60;10.07;;;8.40;99.90;;;;;;5053737;28;20067;-75
2023/01/07 08:16:28;;;;;;;14.85;11.07;;;8.70;99.90;;;;;;5053758;28;20029;-75
2023/01/07 08:18:54;;;;;;;18.83;12.13;;;9.00;99.90;;;;;;5051717;28;20462;-76
2023/01/07 08:21:20;;;;;;;14.13;11.07;;;9.10;99.90;;;;;;5050903;28;20695;-75
2023/01/07 08:23:45;;;;;;;14.82;11.82;;;9.00;99.90;;;;;;5050716;28;20028;-75
2023/01/07 08:26:11;;;;;;;12.63;10.30;;;9.10;99.90;;;;;;5049020;28;20032;-75
2023/01/07 08:28:37;;;;;;;14.80;11.75;;;8.90;99.90;;;;;;5050398;28;20049;-75
2023/01/07 08:31:05;;;;;;;14.32;11.38;;;9.00;99.90;;;;;;5044251;28;20059;-75
2023/01/07 08:33:36;;;;;;;15.63;11.23;;;8.90;99.90;;;;;;5050486;28;20560;-75
2023/01/07 08:36:05;;;;;;;12.43;10.90;;;8.80;99.90;;;;;;5050735;28;20051;-75
2023/01/07 08:38:31;;;;;;;12.65;9.18;;;8.80;99.90;;;;;;5052170;28;20345;-75
2023/01/07 08:40:58;;;;;;;13.18;9.68;;;8.60;99.90;;;;;;5046632;28;20026;-75
2023/01/07 08:43:23;;;;;;;13.50;10.35;;;8.70;99.90;;;;;;5050679;28;20082;-75
2023/01/07 08:45:51;;;;;;;13.32;9.85;;;8.80;99.90;;;;;;5048736;28;20502;-75
2023/01/07 08:48:17;;;;;;;11.88;10.15;;;8.80;99.90;;;;;;5043024;28;20147;-75
2023/01/07 08:50:42;;;;;;;11.98;9.68;;;8.80;99.90;;;;;;5049395;28;20064;-75
2023/01/07 08:53:08;;;;;;;11.13;8.93;;;8.90;99.90;;;;;;5050521;28;20060;-75
2023/01/07 08:55:34;;;;;;;13.50;9.73;;;9.00;99.90;;;;;;5043503;28;20045;-75
2023/01/07 08:57:59;;;;;;;14.43;9.95;;;9.10;99.90;;;;;;5050963;28;20017;-75
2023/01/07 09:00:26;;;;;;;11.70;9.70;;;9.20;99.90;;;;;;5048518;28;20529;-75
2023/01/07 09:02:52;;;;;;;11.15;9.15;;;9.30;99.90;;;;;;5048900;28;20119;-75
2023/01/07 09:05:17;;;;;;;13.15;9.65;;;9.40;99.90;;;;;;5048403;28;20495;-75
2023/01/07 09:07:43;;;;;;;13.63;10.80;;;9.50;99.90;;;;;;5049268;28;20461;-75
2023/01/07 09:10:09;;;;;;;13.35;11.10;;;9.60;99.90;;;;;;5065223;28;20029;-75
2023/01/07 09:12:35;;;;;;;12.90;10.02;;;9.80;99.90;;;;;;5049406;28;20059;-75
2023/01/07 09:15:01;;;;;;;12.18;8.98;;;10.10;99.90;;;;;;5051036;28;20028;-74
2023/01/07 09:17:27;;;;;;;12.52;9.88;;;10.50;99.90;;;;;;5045750;28;20548;-75
2023/01/07 09:19:53;;;;;;;14.68;10.93;;;11.10;99.90;;;;;;5041979;28;20052;-75
2023/01/07 09:22:18;;;;;;;13.27;10.43;;;11.30;99.90;;;;;;5051081;28;20060;-74
2023/01/07 09:24:44;;;;;;;12.45;10.10;;;11.80;99.90;;;;;;5046417;28;20051;-75
2023/01/07 09:27:10;;;;;;;16.17;11.23;;;11.70;99.90;;;;;;5046641;28;20399;-75
2023/01/07 09:29:36;;;;;;;12.80;10.60;;;11.30;99.90;;;;;;5004843;28;1262771;-75
2023/01/07 09:32:02;;;;;;;13.02;10.77;;;11.00;99.90;;;;;;5049492;28;20028;-74
2023/01/07 09:34:27;;;;;;;12.48;11.15;;;11.00;99.90;;;;;;5049823;28;20036;-74
2023/01/07 09:36:53;;;;;;;13.60;10.82;;;11.00;99.90;;;;;;5047095;28;20487;-74
2023/01/07 09:39:18;;;;;;;14.15;10.90;;;11.10;99.90;;;;;;5048929;28;20021;-75
2023/01/07 09:41:55;;;;;;;12.55;10.60;;;11.00;99.90;;;;;;5050698;28;20033;-75
2023/01/07 09:44:59;;;;;;;15.63;11.10;;;11.10;99.90;;;;;;5043583;28;20017;-75
2023/01/07 09:47:28;;;;;;;14.43;11.13;;;11.20;99.90;;;;;;5041447;28;20032;-74
2023/01/07 09:50:03;;;;;;;13.00;10.15;;;11.10;99.90;;;;;;5051822;28;20021;-75
2023/01/07 09:52:46;;;;;;;13.23;10.95;;;11.00;99.90;;;;;;5051835;28;20067;-75
2023/01/07 09:55:21;;;;;;;13.63;11.65;;;11.00;99.90;;;;;;5038889;28;20025;-74
2023/01/07 09:57:47;;;;;;;11.73;10.48;;;11.00;99.90;;;;;;5050692;28;20063;-75
2023/01/07 10:00:19;;;;;;;14.98;10.15;;;10.90;99.90;;;;;;5041187;28;20022;-75
2023/01/07 10:02:57;;;;;;;11.95;9.40;;;10.90;99.90;;;;;;5044054;28;20155;-74
2023/01/07 10:05:36;;;;;;;13.02;10.82;;;10.90;99.90;;;;;;5050689;28;20017;-75
2023/01/07 10:08:11;;;;;;;11.07;9.82;;;11.00;99.90;;;;;;5050385;28;20107;-75
2023/01/07 10:11:00;;;;;;;13.10;9.90;;;11.10;99.90;;;;;;5051044;28;20078;-75
2023/01/07 10:13:53;;;;;;;13.07;10.25;;;11.00;99.90;;;;;;5050780;28;20052;-75
2023/01/07 10:16:22;;;;;;;12.10;9.30;;;11.00;99.90;;;;;;5038653;28;20032;-75
2023/01/07 10:19:04;;;;;;;13.32;9.68;;;11.10;99.90;;;;;;5051000;28;20033;-75
2023/01/07 10:21:46;;;;;;;13.23;10.10;;;11.20;99.90;;;;;;5050629;28;20033;-75
2023/01/07 10:24:22;;;;;;;12.25;9.55;;;11.20;99.90;;;;;;5050930;28;20056;-75
2023/01/07 10:26:53;;;;;;;13.70;10.90;;;11.30;99.90;;;;;;5050027;28;20025;-75
2023/01/07 10:29:31;;;;;;;14.15;10.20;;;11.40;99.90;;;;;;5043075;28;20104;-75
2023/01/07 10:32:11;;;;;;;14.63;10.20;;;11.40;99.90;;;;;;5043688;28;20025;-75
2023/01/07 10:34:46;;;;;;;14.88;10.30;;;11.50;99.90;;;;;;5048532;28;20032;-75
2023/01/07 10:37:31;;;;;;;15.05;10.85;;;11.60;99.90;;;;;;5065356;28;20025;-76
2023/01/07 10:40:16;;;;;;;14.80;10.30;;;11.70;99.90;;;;;;5050925;28;20024;-75
2023/01/07 10:43:16;;;;;;;14.77;10.70;;;11.80;99.90;;;;;;5045880;28;20044;-75
2023/01/07 10:46:10;;;;;;;14.65;10.48;;;11.90;99.90;;;;;;5039209;28;20040;-75
2023/01/07 10:49:04;;;;;;;15.68;10.35;;;11.90;99.90;;;;;;5050393;28;20568;-76
2023/01/07 10:51:47;;;;;;;10.85;9.10;;;12.10;99.90;;;;;;5048809;28;20052;-75
2023/01/07 10:54:45;;;;;;;16.33;10.10;;;12.20;99.90;;;;;;5050313;28;20029;-75
2023/01/07 10:57:18;;;;;;;12.13;10.05;;;12.30;99.90;;;;;;5044867;28;20029;-75
2023/01/07 10:59:48;;;;;;;12.27;9.63;;;12.30;99.90;;;;;;5046491;28;20084;-75
2023/01/07 11:02:20;;;;;;;11.30;8.55;;;12.40;99.90;;;;;;5030423;28;20021;-76
2023/01/07 11:04:46;;;;;;;11.10;8.05;;;12.40;99.90;;;;;;5030451;28;20039;-77
2023/01/07 11:07:35;;;;;;;11.18;8.57;;;12.40;99.90;;;;;;5040518;28;20474;-75
2023/01/07 11:10:04;;;;;;;9.73;8.10;;;12.40;99.90;;;;;;5040808;28;20242;-75
2023/01/07 11:12:44;;;;;;;11.93;8.63;;;12.50;99.90;;;;;;5047002;28;20099;-75
2023/01/07 11:15:38;;;;;;;11.65;8.40;;;12.60;99.90;;;;;;5048959;28;20021;-75
2023/01/07 11:18:17;;;;;;;9.10;7.43;;;12.70;99.90;;;;;;5007783;28;20554;-74
2023/01/07 11:20:49;;;;;;;10.85;8.32;;;12.70;99.90;;;;;;5007991;28;20122;-75
2023/01/07 11:23:40;;;;;;;10.52;8.18;;;12.70;99.90;;;;;;5007233;28;20112;-76
2023/01/07 11:26:06;;;;;;;8.70;7.60;;;12.80;99.90;;;;;;4997889;28;20056;-76
2023/01/07 11:28:32;;;;;;;9.18;6.78;;;12.80;99.90;;;;;;4976613;28;20050;-76
2023/01/07 11:31:00;;;;;;;9.48;7.30;;;12.90;99.90;;;;;;4979371;28;20038;-75
2023/01/07 11:33:40;;;;;;;8.55;7.22;;;12.90;99.90;;;;;;4989592;28;20034;-76
2023/01/07 11:36:07;;;;;;;10.15;7.07;;;13.20;99.90;;;;;;4999903;28;20043;-76
2023/01/07 11:38:36;;;;;;;8.73;6.65;;;13.10;99.90;;;;;;4995819;28;20038;-76
2023/01/07 11:41:05;;;;;;;6.72;6.00;;;13.10;99.90;;;;;;4998442;28;20026;-78
2023/01/07 11:43:34;;;;;;;9.10;6.93;;;13.20;99.90;;;;;;4990539;28;20066;-77
2023/01/07 11:46:05;;;;;;;9.48;6.05;;;13.30;99.90;;;;;;5003831;28;20189;-79
2023/01/07 11:48:33;;;;;;;10.32;6.72;;;13.40;99.90;;;;;;5007267;28;20045;-79
2023/01/07 11:50:59;;;;;;;10.32;6.43;;;13.30;99.90;;;;;;5015626;28;20030;-79
2023/01/07 11:53:49;;;;;;;6.43;5.82;;;13.30;99.90;;;;;;4985097;28;20069;-79
2023/01/07 11:56:21;;;;;;;8.20;6.28;;;13.30;99.90;;;;;;5052984;28;20506;-79
2023/01/07 11:58:48;;;;;;;9.30;6.70;;;13.30;99.90;;;;;;5039349;28;20124;-79
2023/01/07 12:01:17;;;;;;;7.97;5.45;;;13.20;99.90;;;;;;5038718;28;20033;-79
2023/01/07 12:03:52;;;;;;;6.90;5.10;;;13.10;99.90;;;;;;5031874;28;20025;-79
2023/01/07 12:06:31;;;;;;;5.90;5.30;;;13.10;99.90;;;;;;5047506;28;20529;-79
2023/01/07 12:09:24;;;;;;;5.07;4.57;;;13.10;99.90;;;;;;5041641;28;20033;-79
2023/01/07 12:11:51;;;;;;;7.10;5.47;;;13.10;99.90;;;;;;5048440;28;20095;-79
2023/01/07 12:14:26;;;;;;;6.10;4.45;;;13.20;99.90;;;;;;5042578;28;20040;-79
2023/01/07 12:16:54;;;;;;;6.28;4.68;;;13.30;99.90;;;;;;5043201;28;20025;-79
2023/01/07 12:19:38;;;;;;;7.82;5.25;;;13.30;99.90;;;;;;5043061;28;20075;-79
2023/01/07 12:22:22;;;;;;;6.85;4.70;;;13.50;99.90;;;;;;5041105;28;20025;-79
2023/01/07 12:25:19;;;;;;;5.55;4.72;;;13.50;99.90;;;;;;5045862;28;20080;-79
2023/01/07 12:27:52;;;;;;;5.10;4.57;;;13.50;99.90;;;;;;5049470;28;20033;-79
2023/01/07 12:30:49;;;;;;;7.05;5.28;;;13.50;99.90;;;;;;5049719;28;20046;-79
2023/01/07 12:33:37;;;;;;;6.90;4.82;;;13.60;99.90;;;;;;5046203;28;20072;-79
2023/01/07 12:36:35;;;;;;;5.50;4.88;;;13.60;99.90;;;;;;5039849;28;20026;-79
2023/01/07 12:39:07;;;;;;;10.00;6.35;;;13.70;99.90;;;;;;4998595;28;20069;-79
2023/01/07 12:41:39;;;;;;;14.05;6.85;;;13.70;99.90;;;;;;4989688;28;20034;-79
2023/01/07 12:44:25;;;;;;;11.57;7.40;;;13.50;99.90;;;;;;4983367;28;20045;-79
2023/01/07 12:47:13;;;;;;;8.93;6.53;;;13.40;99.90;;;;;;5010759;28;20084;-79
2023/01/07 12:50:00;;;;;;;7.72;5.70;;;13.30;99.90;;;;;;4999395;28;20038;-79
2023/01/07 12:52:45;;;;;;;7.30;5.30;;;13.40;99.90;;;;;;5008311;28;20349;-79
2023/01/07 12:55:21;;;;;;;8.07;5.57;;;13.40;99.90;;;;;;4998122;28;20052;-79
2023/01/07 12:58:09;;;;;;;7.93;5.47;;;13.40;99.90;;;;;;5003474;28;20507;-79
2023/01/07 13:00:48;;;;;;;7.75;5.50;;;13.40;99.90;;;;;;4987267;28;20621;-79
2023/01/07 13:03:43;;;;;;;8.32;5.00;;;13.40;99.90;;;;;;4994609;28;20109;-79
2023/01/07 13:06:21;;;;;;;6.47;5.22;;;13.40;99.90;;;;;;5004919;28;20361;-79
2023/01/07 13:08:56;;;;;;;6.97;5.13;;;13.50;99.90;;;;;;5010128;28;20041;-79